Terminal Aerodrome Forecast
Issued by NWS

Home | Current Version | Previous Version | Text Only | Print | Product List | Glossary On
Versions: 1 2 3 4 5 6 7 8 9 10 11 12 13 14 15
000
FTUS43 KILX 181700
TAFBMI
TAF
KBMI 181722Z 1818/1918 02007KT P6SM SKC
     FM190100 05008KT P6SM SKC
     FM191300 11008KT P6SM SKC=

USA.gov is the U.S. government's official web portal to all federal, state and local government web resources and services.